sensor_id;sensor_type;location;lat;lon;timestamp;pressure;altitude;pressure_sealevel;temperature;humidity
47636;BME280;33364;50.766;15.338;2023-04-03T00:02:18;95562.50;;;-2.09;69.26
47636;BME280;33364;50.766;15.338;2023-04-03T00:04:43;95569.03;;;-2.23;70.23
47636;BME280;33364;50.766;15.338;2023-04-03T00:07:10;95574.72;;;-2.27;70.33
47636;BME280;33364;50.766;15.338;2023-04-03T00:09:36;95567.03;;;-2.29;70.40
47636;BME280;33364;50.766;15.338;2023-04-03T00:12:01;95571.84;;;-2.34;70.29
47636;BME280;33364;50.766;15.338;2023-04-03T00:14:27;95574.78;;;-2.19;68.93
47636;BME280;33364;50.766;15.338;2023-04-03T00:16:53;95570.47;;;-2.28;69.73
47636;BME280;33364;50.766;15.338;2023-04-03T00:19:19;95577.31;;;-2.27;69.11
47636;BME280;33364;50.766;15.338;2023-04-03T00:21:45;95579.72;;;-2.44;70.03
47636;BME280;33364;50.766;15.338;2023-04-03T00:24:10;95571.19;;;-2.54;69.91
47636;BME280;33364;50.766;15.338;2023-04-03T00:26:36;95573.78;;;-2.54;70.03
47636;BME280;33364;50.766;15.338;2023-04-03T00:29:02;95581.44;;;-2.52;69.49
47636;BME280;33364;50.766;15.338;2023-04-03T00:31:28;95578.03;;;-2.53;69.24
47636;BME280;33364;50.766;15.338;2023-04-03T00:33:54;95581.13;;;-2.67;69.52
47636;BME280;33364;50.766;15.338;2023-04-03T00:36:20;95570.38;;;-2.72;69.38
47636;BME280;33364;50.766;15.338;2023-04-03T00:38:46;95570.00;;;-2.78;69.34
47636;BME280;33364;50.766;15.338;2023-04-03T00:41:12;95564.41;;;-2.83;69.67
47636;BME280;33364;50.766;15.338;2023-04-03T00:43:37;95574.94;;;-2.84;70.30
47636;BME280;33364;50.766;15.338;2023-04-03T00:46:03;95573.88;;;-2.91;70.39
47636;BME280;33364;50.766;15.338;2023-04-03T00:48:36;95577.41;;;-2.83;70.63
47636;BME280;33364;50.766;15.338;2023-04-03T00:51:07;95570.56;;;-2.84;70.28
47636;BME280;33364;50.766;15.338;2023-04-03T00:53:44;95572.03;;;-2.81;69.60
47636;BME280;33364;50.766;15.338;2023-04-03T00:56:13;95569.16;;;-3.06;69.88
47636;BME280;33364;50.766;15.338;2023-04-03T00:58:48;95575.09;;;-3.14;70.67
47636;BME280;33364;50.766;15.338;2023-04-03T01:01:21;95568.78;;;-3.11;70.49
47636;BME280;33364;50.766;15.338;2023-04-03T01:03:48;95570.56;;;-3.11;70.71
47636;BME280;33364;50.766;15.338;2023-04-03T01:06:16;95579.47;;;-3.14;70.63
47636;BME280;33364;50.766;15.338;2023-04-03T01:08:42;95571.72;;;-3.24;71.04
47636;BME280;33364;50.766;15.338;2023-04-03T01:11:08;95570.84;;;-3.15;70.68
47636;BME280;33364;50.766;15.338;2023-04-03T01:13:34;95577.31;;;-3.19;70.77
47636;BME280;33364;50.766;15.338;2023-04-03T01:16:01;95577.59;;;-3.22;71.08
47636;BME280;33364;50.766;15.338;2023-04-03T01:18:27;95584.56;;;-3.22;71.44
47636;BME280;33364;50.766;15.338;2023-04-03T01:23:27;95582.25;;;-3.25;71.64
47636;BME280;33364;50.766;15.338;2023-04-03T01:25:56;95584.59;;;-3.32;71.80
47636;BME280;33364;50.766;15.338;2023-04-03T01:28:25;95581.84;;;-3.30;71.56
47636;BME280;33364;50.766;15.338;2023-04-03T01:31:03;95583.66;;;-3.31;71.52
47636;BME280;33364;50.766;15.338;2023-04-03T01:33:32;95589.38;;;-3.27;71.75
47636;BME280;33364;50.766;15.338;2023-04-03T01:35:58;95592.38;;;-3.32;71.84
47636;BME280;33364;50.766;15.338;2023-04-03T01:38:24;95594.56;;;-3.27;71.34
47636;BME280;33364;50.766;15.338;2023-04-03T01:40:50;95590.50;;;-3.30;71.24
47636;BME280;33364;50.766;15.338;2023-04-03T01:43:16;95592.59;;;-3.16;71.39
47636;BME280;33364;50.766;15.338;2023-04-03T01:45:42;95594.28;;;-3.24;71.04
47636;BME280;33364;50.766;15.338;2023-04-03T01:48:07;95584.56;;;-3.22;71.49
47636;BME280;33364;50.766;15.338;2023-04-03T01:50:33;95598.41;;;-3.22;71.50
47636;BME280;33364;50.766;15.338;2023-04-03T01:52:59;95598.44;;;-3.32;71.42
47636;BME280;33364;50.766;15.338;2023-04-03T01:55:25;95601.81;;;-3.21;71.39
47636;BME280;33364;50.766;15.338;2023-04-03T01:57:51;95600.44;;;-3.25;71.53
47636;BME280;33364;50.766;15.338;2023-04-03T02:00:17;95597.31;;;-3.29;71.51
47636;BME280;33364;50.766;15.338;2023-04-03T02:02:42;95604.44;;;-3.31;71.61
47636;BME280;33364;50.766;15.338;2023-04-03T02:05:08;95600.28;;;-3.24;71.62
47636;BME280;33364;50.766;15.338;2023-04-03T02:07:34;95602.75;;;-3.22;72.07
47636;BME280;33364;50.766;15.338;2023-04-03T02:10:00;95603.44;;;-3.20;72.43
47636;BME280;33364;50.766;15.338;2023-04-03T02:12:26;95598.63;;;-3.15;72.17
47636;BME280;33364;50.766;15.338;2023-04-03T02:14:52;95596.75;;;-3.23;71.79
47636;BME280;33364;50.766;15.338;2023-04-03T02:17:17;95599.34;;;-3.23;71.64
47636;BME280;33364;50.766;15.338;2023-04-03T02:19:43;95595.41;;;-3.27;72.35
47636;BME280;33364;50.766;15.338;2023-04-03T02:22:09;95594.31;;;-3.34;72.21
47636;BME280;33364;50.766;15.338;2023-04-03T02:24:35;95596.53;;;-3.39;72.36
47636;BME280;33364;50.766;15.338;2023-04-03T02:27:01;95589.00;;;-3.42;72.16
47636;BME280;33364;50.766;15.338;2023-04-03T02:29:27;95600.34;;;-3.43;72.38
47636;BME280;33364;50.766;15.338;2023-04-03T02:31:53;95600.06;;;-3.40;72.64
47636;BME280;33364;50.766;15.338;2023-04-03T02:34:18;95608.31;;;-3.45;72.85
47636;BME280;33364;50.766;15.338;2023-04-03T02:36:44;95603.69;;;-3.51;73.02
47636;BME280;33364;50.766;15.338;2023-04-03T02:39:10;95606.81;;;-3.47;72.82
47636;BME280;33364;50.766;15.338;2023-04-03T02:41:36;95607.09;;;-3.51;72.93
47636;BME280;33364;50.766;15.338;2023-04-03T02:44:04;95600.06;;;-3.40;72.68
47636;BME280;33364;50.766;15.338;2023-04-03T02:46:30;95601.78;;;-3.59;72.83
47636;BME280;33364;50.766;15.338;2023-04-03T02:48:56;95600.41;;;-3.63;73.83
47636;BME280;33364;50.766;15.338;2023-04-03T02:51:21;95596.03;;;-3.53;73.48
47636;BME280;33364;50.766;15.338;2023-04-03T02:53:49;95598.75;;;-3.44;73.21
47636;BME280;33364;50.766;15.338;2023-04-03T02:56:15;95604.50;;;-3.51;73.75
47636;BME280;33364;50.766;15.338;2023-04-03T02:58:42;95603.28;;;-3.46;73.20
47636;BME280;33364;50.766;15.338;2023-04-03T03:01:08;95594.91;;;-3.50;73.71
47636;BME280;33364;50.766;15.338;2023-04-03T03:03:34;95604.38;;;-3.59;73.79
47636;BME280;33364;50.766;15.338;2023-04-03T03:06:10;95600.13;;;-3.60;73.55
47636;BME280;33364;50.766;15.338;2023-04-03T03:08:36;95609.56;;;-3.59;73.60
47636;BME280;33364;50.766;15.338;2023-04-03T03:11:03;95604.69;;;-3.72;74.31
47636;BME280;33364;50.766;15.338;2023-04-03T03:13:29;95609.47;;;-3.67;74.74
47636;BME280;33364;50.766;15.338;2023-04-03T03:15:54;95602.34;;;-3.65;74.25
47636;BME280;33364;50.766;15.338;2023-04-03T03:18:21;95616.56;;;-3.69;74.48
47636;BME280;33364;50.766;15.338;2023-04-03T03:20:46;95615.31;;;-3.65;74.07
47636;BME280;33364;50.766;15.338;2023-04-03T03:23:12;95600.72;;;-3.66;74.61
47636;BME280;33364;50.766;15.338;2023-04-03T03:25:39;95610.97;;;-3.64;74.57
47636;BME280;33364;50.766;15.338;2023-04-03T03:28:06;95608.50;;;-3.56;74.40
47636;BME280;33364;50.766;15.338;2023-04-03T03:30:33;95609.84;;;-3.62;74.16
47636;BME280;33364;50.766;15.338;2023-04-03T03:32:59;95612.16;;;-3.59;74.75
47636;BME280;33364;50.766;15.338;2023-04-03T03:35:24;95609.84;;;-3.62;74.22
47636;BME280;33364;50.766;15.338;2023-04-03T03:37:50;95605.59;;;-3.63;74.43
47636;BME280;33364;50.766;15.338;2023-04-03T03:40:16;95604.94;;;-3.65;74.58
47636;BME280;33364;50.766;15.338;2023-04-03T03:42:42;95616.00;;;-3.63;74.49
47636;BME280;33364;50.766;15.338;2023-04-03T03:45:08;95604.13;;;-3.65;74.64
47636;BME280;33364;50.766;15.338;2023-04-03T03:47:34;95611.25;;;-3.67;74.70
47636;BME280;33364;50.766;15.338;2023-04-03T03:50:00;95613.00;;;-3.68;75.07
47636;BME280;33364;50.766;15.338;2023-04-03T03:52:25;95613.44;;;-3.73;74.77
47636;BME280;33364;50.766;15.338;2023-04-03T03:54:51;95610.97;;;-3.74;75.40
47636;BME280;33364;50.766;15.338;2023-04-03T03:57:17;95611.94;;;-3.75;74.66
47636;BME280;33364;50.766;15.338;2023-04-03T03:59:43;95619.44;;;-3.72;74.63
47636;BME280;33364;50.766;15.338;2023-04-03T04:02:11;95609.75;;;-3.90;74.45
47636;BME280;33364;50.766;15.338;2023-04-03T04:04:36;95615.78;;;-3.99;74.89
47636;BME280;33364;50.766;15.338;2023-04-03T04:07:03;95612.38;;;-4.09;75.32
47636;BME280;33364;50.766;15.338;2023-04-03T04:09:29;95611.16;;;-4.05;75.14
47636;BME280;33364;50.766;15.338;2023-04-03T04:11:55;95609.91;;;-4.01;74.88
47636;BME280;33364;50.766;15.338;2023-04-03T04:14:20;95617.56;;;-3.99;74.77
47636;BME280;33364;50.766;15.338;2023-04-03T04:16:47;95616.06;;;-4.02;75.02
47636;BME280;33364;50.766;15.338;2023-04-03T04:19:13;95619.34;;;-4.00;75.09
47636;BME280;33364;50.766;15.338;2023-04-03T04:21:39;95621.41;;;-4.03;75.04
47636;BME280;33364;50.766;15.338;2023-04-03T04:24:05;95620.16;;;-4.09;75.65
47636;BME280;33364;50.766;15.338;2023-04-03T04:26:31;95631.50;;;-4.10;75.20
47636;BME280;33364;50.766;15.338;2023-04-03T04:28:57;95641.47;;;-4.15;74.74
47636;BME280;33364;50.766;15.338;2023-04-03T04:31:23;95616.22;;;-4.23;75.68
47636;BME280;33364;50.766;15.338;2023-04-03T04:33:48;95627.00;;;-4.28;76.07
47636;BME280;33364;50.766;15.338;2023-04-03T04:36:14;95631.06;;;-4.15;74.98
47636;BME280;33364;50.766;15.338;2023-04-03T04:38:40;95626.72;;;-4.15;75.22
47636;BME280;33364;50.766;15.338;2023-04-03T04:41:06;95632.72;;;-4.04;75.03
47636;BME280;33364;50.766;15.338;2023-04-03T04:43:32;95638.31;;;-4.09;74.73
47636;BME280;33364;50.766;15.338;2023-04-03T04:46:06;95635.72;;;-4.09;74.87
47636;BME280;33364;50.766;15.338;2023-04-03T04:48:32;95642.03;;;-4.02;75.36
47636;BME280;33364;50.766;15.338;2023-04-03T04:50:59;95647.09;;;-4.00;75.14
47636;BME280;33364;50.766;15.338;2023-04-03T04:53:24;95637.50;;;-4.00;75.50
47636;BME280;33364;50.766;15.338;2023-04-03T04:55:51;95639.97;;;-3.98;75.00
47636;BME280;33364;50.766;15.338;2023-04-03T04:58:17;95621.78;;;-3.79;74.52
47636;BME280;33364;50.766;15.338;2023-04-03T05:00:43;95631.31;;;-3.79;73.64
47636;BME280;33364;50.766;15.338;2023-04-03T05:03:09;95637.38;;;-3.89;73.40
47636;BME280;33364;50.766;15.338;2023-04-03T05:05:35;95635.72;;;-3.90;73.21
47636;BME280;33364;50.766;15.338;2023-04-03T05:08:01;95642.03;;;-3.92;73.79
47636;BME280;33364;50.766;15.338;2023-04-03T05:10:28;95641.72;;;-3.89;74.20
47636;BME280;33364;50.766;15.338;2023-04-03T05:12:54;95649.69;;;-3.91;73.92
47636;BME280;33364;50.766;15.338;2023-04-03T05:15:20;95637.91;;;-3.95;73.69
47636;BME280;33364;50.766;15.338;2023-04-03T05:17:45;95657.44;;;-3.81;73.89
47636;BME280;33364;50.766;15.338;2023-04-03T05:20:12;95663.06;;;-3.85;73.81
47636;BME280;33364;50.766;15.338;2023-04-03T05:22:37;95661.41;;;-3.96;73.69
47636;BME280;33364;50.766;15.338;2023-04-03T05:25:04;95656.75;;;-4.02;73.46
47636;BME280;33364;50.766;15.338;2023-04-03T05:27:30;95668.38;;;-3.97;73.58
47636;BME280;33364;50.766;15.338;2023-04-03T05:29:56;95672.47;;;-3.84;72.90
47636;BME280;33364;50.766;15.338;2023-04-03T05:32:23;95666.19;;;-3.82;72.56
47636;BME280;33364;50.766;15.338;2023-04-03T05:34:50;95672.59;;;-3.76;72.91
47636;BME280;33364;50.766;15.338;2023-04-03T05:37:17;95675.06;;;-3.75;73.40
47636;BME280;33364;50.766;15.338;2023-04-03T05:39:42;95673.19;;;-3.82;72.85
47636;BME280;33364;50.766;15.338;2023-04-03T05:42:08;95672.34;;;-3.73;72.71
47636;BME280;33364;50.766;15.338;2023-04-03T05:44:34;95682.19;;;-3.67;72.03
47636;BME280;33364;50.766;15.338;2023-04-03T05:47:00;95678.50;;;-3.74;72.48
47636;BME280;33364;50.766;15.338;2023-04-03T05:49:26;95682.44;;;-3.70;72.57
47636;BME280;33364;50.766;15.338;2023-04-03T05:51:52;95676.69;;;-3.54;71.92
47636;BME280;33364;50.766;15.338;2023-04-03T05:54:28;95687.22;;;-3.56;72.60
47636;BME280;33364;50.766;15.338;2023-04-03T05:56:54;95695.53;;;-3.33;72.15
47636;BME280;33364;50.766;15.338;2023-04-03T05:59:21;95690.34;;;-3.52;70.76
47636;BME280;33364;50.766;15.338;2023-04-03T06:01:47;95696.81;;;-3.56;71.18
47636;BME280;33364;50.766;15.338;2023-04-03T06:04:13;95689.03;;;-3.66;71.74
47636;BME280;33364;50.766;15.338;2023-04-03T06:06:57;95699.53;;;-3.58;71.28
47636;BME280;33364;50.766;15.338;2023-04-03T06:09:26;95705.41;;;-3.56;71.63
47636;BME280;33364;50.766;15.338;2023-04-03T06:11:52;95702.38;;;-3.32;70.50
47636;BME280;33364;50.766;15.338;2023-04-03T06:14:18;95706.19;;;-3.36;71.17
47636;BME280;33364;50.766;15.338;2023-04-03T06:16:44;95705.53;;;-3.38;70.04
47636;BME280;33364;50.766;15.338;2023-04-03T06:19:11;95706.34;;;-3.37;70.33
47636;BME280;33364;50.766;15.338;2023-04-03T06:21:37;95701.81;;;-3.35;71.08
47636;BME280;33364;50.766;15.338;2023-04-03T06:24:04;95708.09;;;-3.28;69.95
47636;BME280;33364;50.766;15.338;2023-04-03T06:26:30;95708.09;;;-3.28;69.33
47636;BME280;33364;50.766;15.338;2023-04-03T06:28:56;95710.97;;;-3.31;69.69
47636;BME280;33364;50.766;15.338;2023-04-03T06:31:21;95713.56;;;-3.31;69.37
47636;BME280;33364;50.766;15.338;2023-04-03T06:33:47;95709.59;;;-3.35;70.65
47636;BME280;33364;50.766;15.338;2023-04-03T06:36:13;95712.66;;;-3.40;69.42
47636;BME280;33364;50.766;15.338;2023-04-03T06:38:39;95714.81;;;-3.35;68.42
47636;BME280;33364;50.766;15.338;2023-04-03T06:41:05;95727.53;;;-3.52;68.92
47636;BME280;33364;50.766;15.338;2023-04-03T06:43:31;95728.91;;;-3.47;68.68
47636;BME280;33364;50.766;15.338;2023-04-03T06:45:57;95722.19;;;-3.40;69.26
47636;BME280;33364;50.766;15.338;2023-04-03T06:48:23;95712.91;;;-3.33;69.23
47636;BME280;33364;50.766;15.338;2023-04-03T06:50:49;95717.38;;;-3.16;68.98
47636;BME280;33364;50.766;15.338;2023-04-03T06:53:16;95719.66;;;-3.03;68.64
47636;BME280;33364;50.766;15.338;2023-04-03T06:55:42;95703.41;;;-3.05;68.36
47636;BME280;33364;50.766;15.338;2023-04-03T06:58:07;95726.41;;;-3.10;68.09
47636;BME280;33364;50.766;15.338;2023-04-03T07:00:33;95725.00;;;-3.04;67.25
47636;BME280;33364;50.766;15.338;2023-04-03T07:02:59;95722.16;;;-3.11;67.87
47636;BME280;33364;50.766;15.338;2023-04-03T07:05:25;95729.78;;;-3.00;68.40
47636;BME280;33364;50.766;15.338;2023-04-03T07:07:52;95739.28;;;-3.18;66.93
47636;BME280;33364;50.766;15.338;2023-04-03T07:10:18;95747.22;;;-3.39;66.81
47636;BME280;33364;50.766;15.338;2023-04-03T07:12:44;95744.91;;;-3.33;67.11
47636;BME280;33364;50.766;15.338;2023-04-03T07:15:10;95744.75;;;-3.31;68.14
47636;BME280;33364;50.766;15.338;2023-04-03T07:17:38;95746.66;;;-3.14;67.45
47636;BME280;33364;50.766;15.338;2023-04-03T07:20:04;95745.53;;;-3.11;66.48
47636;BME280;33364;50.766;15.338;2023-04-03T07:22:30;95747.97;;;-3.00;66.46
47636;BME280;33364;50.766;15.338;2023-04-03T07:24:56;95752.50;;;-2.92;66.83
47636;BME280;33364;50.766;15.338;2023-04-03T07:27:22;95744.59;;;-2.63;67.34
47636;BME280;33364;50.766;15.338;2023-04-03T07:29:47;95752.19;;;-2.42;64.55
47636;BME280;33364;50.766;15.338;2023-04-03T07:32:17;95749.81;;;-2.07;64.25
47636;BME280;33364;50.766;15.338;2023-04-03T07:34:43;95738.13;;;-2.03;61.57
47636;BME280;33364;50.766;15.338;2023-04-03T07:37:09;95742.03;;;-1.89;61.84
47636;BME280;33364;50.766;15.338;2023-04-03T07:39:35;95741.44;;;-1.83;61.94
47636;BME280;33364;50.766;15.338;2023-04-03T07:42:01;95743.13;;;-1.92;61.14
47636;BME280;33364;50.766;15.338;2023-04-03T07:44:27;95751.09;;;-2.21;62.58
47636;BME280;33364;50.766;15.338;2023-04-03T07:46:54;95749.38;;;-2.03;62.70
47636;BME280;33364;50.766;15.338;2023-04-03T07:49:21;95739.28;;;-1.88;62.31
47636;BME280;33364;50.766;15.338;2023-04-03T07:51:50;95744.31;;;-2.04;61.68
47636;BME280;33364;50.766;15.338;2023-04-03T07:54:15;95755.88;;;-1.89;62.94
47636;BME280;33364;50.766;15.338;2023-04-03T07:56:41;95755.63;;;-1.95;62.09
47636;BME280;33364;50.766;15.338;2023-04-03T07:59:09;95759.09;;;-2.05;61.60
47636;BME280;33364;50.766;15.338;2023-04-03T08:01:35;95767.72;;;-2.22;63.65
47636;BME280;33364;50.766;15.338;2023-04-03T08:04:00;95764.81;;;-2.19;62.10
47636;BME280;33364;50.766;15.338;2023-04-03T08:06:26;95767.47;;;-2.29;63.05
47636;BME280;33364;50.766;15.338;2023-04-03T08:08:54;95768.38;;;-2.20;62.04
47636;BME280;33364;50.766;15.338;2023-04-03T08:11:20;95759.31;;;-2.16;62.65
47636;BME280;33364;50.766;15.338;2023-04-03T08:13:46;95752.84;;;-2.12;62.86
47636;BME280;33364;50.766;15.338;2023-04-03T08:16:16;95760.94;;;-2.15;61.60
47636;BME280;33364;50.766;15.338;2023-04-03T08:18:43;95761.63;;;-2.13;61.39
47636;BME280;33364;50.766;15.338;2023-04-03T08:21:10;95763.19;;;-2.20;62.32
47636;BME280;33364;50.766;15.338;2023-04-03T08:23:37;95777.88;;;-2.29;61.00
47636;BME280;33364;50.766;15.338;2023-04-03T08:26:07;95760.34;;;-2.27;62.12
47636;BME280;33364;50.766;15.338;2023-04-03T08:28:33;95763.59;;;-2.25;62.25
47636;BME280;33364;50.766;15.338;2023-04-03T08:31:03;95772.91;;;-2.22;60.85
47636;BME280;33364;50.766;15.338;2023-04-03T08:33:30;95765.44;;;-2.07;62.32
47636;BME280;33364;50.766;15.338;2023-04-03T08:35:55;95773.72;;;-1.94;60.42
47636;BME280;33364;50.766;15.338;2023-04-03T08:38:21;95774.66;;;-1.49;59.19
47636;BME280;33364;50.766;15.338;2023-04-03T08:40:47;95772.34;;;-1.52;58.78
47636;BME280;33364;50.766;15.338;2023-04-03T08:43:31;95778.16;;;-1.58;58.62
47636;BME280;33364;50.766;15.338;2023-04-03T08:46:01;95763.63;;;-1.79;60.35
47636;BME280;33364;50.766;15.338;2023-04-03T08:48:35;95767.50;;;-1.29;58.13
47636;BME280;33364;50.766;15.338;2023-04-03T08:51:13;95767.53;;;-0.50;56.24
47636;BME280;33364;50.766;15.338;2023-04-03T08:53:54;95770.25;;;-0.60;56.13
47636;BME280;33364;50.766;15.338;2023-04-03T08:56:24;95759.13;;;0.07;56.76
47636;BME280;33364;50.766;15.338;2023-04-03T08:58:56;95769.47;;;-0.18;55.85
47636;BME280;33364;50.766;15.338;2023-04-03T09:01:32;95765.38;;;0.22;54.85
47636;BME280;33364;50.766;15.338;2023-04-03T09:04:01;95771.34;;;0.98;54.13
47636;BME280;33364;50.766;15.338;2023-04-03T09:06:31;95770.91;;;1.67;52.42
47636;BME280;33364;50.766;15.338;2023-04-03T09:09:15;95771.31;;;1.87;49.92
47636;BME280;33364;50.766;15.338;2023-04-03T09:15:06;95777.50;;;1.46;50.68
47636;BME280;33364;50.766;15.338;2023-04-03T09:23:29;95791.88;;;-0.07;54.43
47636;BME280;33364;50.766;15.338;2023-04-03T09:28:47;95791.19;;;-0.78;54.39
47636;BME280;33364;50.766;15.338;2023-04-03T09:31:22;95791.53;;;-0.99;54.21
47636;BME280;33364;50.766;15.338;2023-04-03T09:33:59;95796.78;;;-1.17;56.07
47636;BME280;33364;50.766;15.338;2023-04-03T09:39:13;95798.69;;;-1.01;56.45
47636;BME280;33364;50.766;15.338;2023-04-03T09:41:38;95794.25;;;-0.57;54.94
47636;BME280;33364;50.766;15.338;2023-04-03T09:44:20;95794.47;;;-0.50;54.93
47636;BME280;33364;50.766;15.338;2023-04-03T09:46:46;95789.69;;;-0.54;56.27
47636;BME280;33364;50.766;15.338;2023-04-03T09:49:13;95797.19;;;-0.60;57.61
47636;BME280;33364;50.766;15.338;2023-04-03T09:51:38;95808.63;;;-0.79;57.39
47636;BME280;33364;50.766;15.338;2023-04-03T09:54:41;95810.16;;;-0.94;58.73
47636;BME280;33364;50.766;15.338;2023-04-03T09:57:10;95806.22;;;-1.16;56.52
47636;BME280;33364;50.766;15.338;2023-04-03T09:59:47;95820.53;;;-1.02;57.37
47636;BME280;33364;50.766;15.338;2023-04-03T10:02:40;95800.38;;;-0.92;55.33
47636;BME280;33364;50.766;15.338;2023-04-03T10:10:40;95803.78;;;-0.47;55.23
47636;BME280;33364;50.766;15.338;2023-04-03T10:13:17;95810.06;;;-0.58;54.60
47636;BME280;33364;50.766;15.338;2023-04-03T10:15:51;95816.25;;;-0.59;54.38
47636;BME280;33364;50.766;15.338;2023-04-03T10:20:59;95809.66;;;-0.71;51.36
47636;BME280;33364;50.766;15.338;2023-04-03T10:23:42;95810.25;;;-1.04;52.08
47636;BME280;33364;50.766;15.338;2023-04-03T10:26:59;95803.09;;;-0.76;52.92
47636;BME280;33364;50.766;15.338;2023-04-03T10:35:31;95783.91;;;2.31;47.26
47636;BME280;33364;50.766;15.338;2023-04-03T10:38:09;95791.69;;;2.16;45.51
47636;BME280;33364;50.766;15.338;2023-04-03T10:41:22;95800.25;;;1.54;48.00
47636;BME280;33364;50.766;15.338;2023-04-03T10:44:19;95786.00;;;1.40;46.75
47636;BME280;33364;50.766;15.338;2023-04-03T10:46:50;95778.78;;;1.59;48.06
47636;BME280;33364;50.766;15.338;2023-04-03T10:49:44;95794.66;;;1.65;47.12
47636;BME280;33364;50.766;15.338;2023-04-03T10:52:39;95779.91;;;1.64;46.77
47636;BME280;33364;50.766;15.338;2023-04-03T10:57:43;95784.91;;;1.10;48.57
47636;BME280;33364;50.766;15.338;2023-04-03T11:00:21;95794.91;;;0.98;48.81
47636;BME280;33364;50.766;15.338;2023-04-03T11:03:01;95787.50;;;0.52;48.85
47636;BME280;33364;50.766;15.338;2023-04-03T11:05:49;95781.13;;;0.63;49.36
47636;BME280;33364;50.766;15.338;2023-04-03T11:11:00;95764.97;;;0.93;49.70
47636;BME280;33364;50.766;15.338;2023-04-03T11:13:39;95773.94;;;0.82;50.72
47636;BME280;33364;50.766;15.338;2023-04-03T11:16:07;95781.63;;;0.75;51.08
47636;BME280;33364;50.766;15.338;2023-04-03T11:18:56;95776.06;;;0.62;49.49
47636;BME280;33364;50.766;15.338;2023-04-03T11:21:29;95770.19;;;0.60;50.95
47636;BME280;33364;50.766;15.338;2023-04-03T11:23:57;95779.84;;;0.67;50.57
47636;BME280;33364;50.766;15.338;2023-04-03T11:26:29;95777.53;;;0.56;52.55
47636;BME280;33364;50.766;15.338;2023-04-03T11:29:00;95772.63;;;0.45;52.66
47636;BME280;33364;50.766;15.338;2023-04-03T11:37:20;95785.56;;;0.71;53.22
47636;BME280;33364;50.766;15.338;2023-04-03T11:39:54;95774.94;;;0.89;51.43
47636;BME280;33364;50.766;15.338;2023-04-03T11:47:58;95778.81;;;0.44;53.27
47636;BME280;33364;50.766;15.338;2023-04-03T11:52:59;95784.09;;;0.85;53.55
47636;BME280;33364;50.766;15.338;2023-04-03T12:03:29;95761.53;;;2.12;47.47
47636;BME280;33364;50.766;15.338;2023-04-03T12:08:49;95768.91;;;0.88;49.34
47636;BME280;33364;50.766;15.338;2023-04-03T12:11:28;95777.06;;;0.69;51.42
47636;BME280;33364;50.766;15.338;2023-04-03T12:16:28;95778.81;;;0.44;53.66
47636;BME280;33364;50.766;15.338;2023-04-03T12:24:31;95756.91;;;1.35;49.27
47636;BME280;33364;50.766;15.338;2023-04-03T12:46:45;95751.72;;;1.02;54.97
47636;BME280;33364;50.766;15.338;2023-04-03T12:49:26;95742.31;;;1.49;55.83
47636;BME280;33364;50.766;15.338;2023-04-03T12:51:56;95750.38;;;1.31;55.35
47636;BME280;33364;50.766;15.338;2023-04-03T12:54:38;95751.53;;;1.12;54.68
47636;BME280;33364;50.766;15.338;2023-04-03T12:59:40;95745.00;;;1.24;53.21
47636;BME280;33364;50.766;15.338;2023-04-03T13:04:55;95734.50;;;1.33;52.51
47636;BME280;33364;50.766;15.338;2023-04-03T13:07:30;95726.19;;;0.96;53.86
47636;BME280;33364;50.766;15.338;2023-04-03T13:12:29;95741.25;;;1.02;53.47
47636;BME280;33364;50.766;15.338;2023-04-03T13:14:58;95735.34;;;1.17;52.88
47636;BME280;33364;50.766;15.338;2023-04-03T13:17:25;95736.59;;;1.29;51.71
47636;BME280;33364;50.766;15.338;2023-04-03T13:19:51;95739.19;;;1.45;52.64
47636;BME280;33364;50.766;15.338;2023-04-03T13:22:32;95745.25;;;1.46;52.09
47636;BME280;33364;50.766;15.338;2023-04-03T13:25:07;95752.19;;;1.06;54.23
47636;BME280;33364;50.766;15.338;2023-04-03T13:27:34;95743.22;;;0.76;54.84
47636;BME280;33364;50.766;15.338;2023-04-03T13:30:02;95737.50;;;0.72;53.76
47636;BME280;33364;50.766;15.338;2023-04-03T13:32:31;95735.34;;;1.08;51.54
47636;BME280;33364;50.766;15.338;2023-04-03T13:34:57;95729.72;;;1.44;51.83
47636;BME280;33364;50.766;15.338;2023-04-03T13:37:27;95724.31;;;1.46;50.43
47636;BME280;33364;50.766;15.338;2023-04-03T13:40:14;95722.72;;;1.76;50.00
47636;BME280;33364;50.766;15.338;2023-04-03T13:42:40;95728.03;;;1.60;48.81
47636;BME280;33364;50.766;15.338;2023-04-03T13:45:21;95718.25;;;1.37;48.19
47636;BME280;33364;50.766;15.338;2023-04-03T13:47:51;95717.63;;;1.35;50.04
47636;BME280;33364;50.766;15.338;2023-04-03T13:50:24;95731.84;;;1.41;49.33
47636;BME280;33364;50.766;15.338;2023-04-03T13:53:03;95735.69;;;1.05;50.39
47636;BME280;33364;50.766;15.338;2023-04-03T13:55:36;95744.19;;;0.91;51.98
47636;BME280;33364;50.766;15.338;2023-04-03T14:00:38;95730.47;;;0.48;51.57
47636;BME280;33364;50.766;15.338;2023-04-03T14:03:23;95729.31;;;0.67;51.86
47636;BME280;33364;50.766;15.338;2023-04-03T14:05:49;95730.44;;;1.05;52.13
47636;BME280;33364;50.766;15.338;2023-04-03T14:08:15;95724.81;;;1.41;50.88
47636;BME280;33364;50.766;15.338;2023-04-03T14:10:41;95739.56;;;1.34;48.37
47636;BME280;33364;50.766;15.338;2023-04-03T14:13:15;95725.69;;;1.09;49.23
47636;BME280;33364;50.766;15.338;2023-04-03T14:15:42;95735.47;;;1.32;49.86
47636;BME280;33364;50.766;15.338;2023-04-03T14:18:17;95749.88;;;1.11;50.12
47636;BME280;33364;50.766;15.338;2023-04-03T14:20:44;95744.66;;;0.95;49.91
47636;BME280;33364;50.766;15.338;2023-04-03T14:23:10;95737.50;;;0.80;51.53
47636;BME280;33364;50.766;15.338;2023-04-03T14:25:37;95732.91;;;0.90;51.01
47636;BME280;33364;50.766;15.338;2023-04-03T14:28:18;95737.34;;;0.98;49.86
47636;BME280;33364;50.766;15.338;2023-04-03T14:30:45;95732.25;;;1.05;49.31
47636;BME280;33364;50.766;15.338;2023-04-03T14:33:14;95734.34;;;1.01;49.36
47636;BME280;33364;50.766;15.338;2023-04-03T14:35:40;95741.09;;;0.87;49.64
47636;BME280;33364;50.766;15.338;2023-04-03T14:38:33;95743.22;;;0.84;50.37
47636;BME280;33364;50.766;15.338;2023-04-03T14:40:58;95746.16;;;0.56;51.24
47636;BME280;33364;50.766;15.338;2023-04-03T14:43:24;95732.03;;;0.16;52.63